Time;durP1;ratioP1;P1;durP2;ratioP2;P2;SDS_P1;SDS_P2;PMS_P1;PMS_P2;Temp;Humidity;BMP_temperature;BMP_pressure;BME280_temperature;BME280_humidity;BME280_pressure;Samples;Min_cycle;Max_cycle;Signal;HPM_P1;HPM_P2
2022/06/23 00:01:01;;;;;;;15.77;6.80;;;;;;;;;;5063177;28;20197;-68
2022/06/23 00:03:31;;;;;;;12.30;7.30;;;;;;;;;;5063307;28;20228;-68
2022/06/23 00:06:00;;;;;;;10.85;6.32;;;;;;;;;;5062759;28;20229;-68
2022/06/23 00:08:26;;;;;;;12.90;7.00;;;;;;;;;;5063007;28;20203;-68
2022/06/23 00:10:55;;;;;;;11.70;6.55;;;;;;;;;;5062820;28;20196;-68
2022/06/23 00:13:23;;;;;;;15.70;7.88;;;;;;;;;;5062083;28;20304;-68
2022/06/23 00:15:50;;;;;;;8.50;6.70;;;;;;;;;;5063030;28;20554;-68
2022/06/23 00:18:18;;;;;;;19.13;7.30;;;;;;;;;;5062897;28;20197;-68
2022/06/23 00:20:46;;;;;;;11.57;7.03;;;;;;;;;;5062933;28;20504;-68
2022/06/23 00:23:15;;;;;;;10.05;7.25;;;;;;;;;;5062845;28;20416;-68
2022/06/23 00:25:44;;;;;;;12.80;6.72;;;;;;;;;;5062851;28;20197;-68
2022/06/23 00:28:15;;;;;;;13.23;6.72;;;;;;;;;;5062412;28;20197;-68
2022/06/23 00:30:42;;;;;;;11.07;6.60;;;;;;;;;;5062683;28;20207;-68
2022/06/23 00:33:15;;;;;;;18.23;6.70;;;;;;;;;;5062698;28;20419;-68
2022/06/23 00:35:42;;;;;;;13.20;6.97;;;;;;;;;;5062745;28;20523;-68
2022/06/23 00:38:18;;;;;;;9.85;7.13;;;;;;;;;;5062407;28;20408;-68
2022/06/23 00:40:44;;;;;;;7.80;6.82;;;;;;;;;;5062416;28;20197;-68
2022/06/23 00:43:11;;;;;;;12.90;7.80;;;;;;;;;;5062568;28;20223;-68
2022/06/23 00:45:41;;;;;;;9.98;7.07;;;;;;;;;;5062523;28;20205;-68
2022/06/23 00:48:12;;;;;;;10.23;6.85;;;;;;;;;;5062184;28;20197;-68
2022/06/23 00:50:40;;;;;;;7.82;6.85;;;;;;;;;;5062542;28;20204;-68
2022/06/23 00:53:15;;;;;;;14.57;7.00;;;;;;;;;;5062303;28;20194;-68
2022/06/23 00:55:44;;;;;;;14.35;7.50;;;;;;;;;;5062579;28;20203;-68
2022/06/23 00:58:17;;;;;;;14.65;7.22;;;;;;;;;;5062155;28;20204;-68
2022/06/23 01:00:44;;;;;;;15.48;6.63;;;;;;;;;;5062434;28;20493;-68
2022/06/23 01:03:13;;;;;;;9.65;7.00;;;;;;;;;;5062047;28;20213;-68
2022/06/23 01:05:41;;;;;;;14.60;7.57;;;;;;;;;;5062310;28;20417;-68
2022/06/23 01:08:13;;;;;;;9.20;6.70;;;;;;;;;;5061901;28;20197;-68
2022/06/23 01:10:43;;;;;;;13.13;7.03;;;;;;;;;;5062308;28;20219;-68
2022/06/23 01:13:14;;;;;;;9.65;6.85;;;;;;;;;;5062257;28;20566;-68
2022/06/23 01:15:41;;;;;;;9.93;6.88;;;;;;;;;;5062114;28;20496;-68
2022/06/23 01:18:12;;;;;;;12.95;6.70;;;;;;;;;;5061820;28;20373;-68
2022/06/23 01:20:45;;;;;;;10.50;6.70;;;;;;;;;;5061991;28;20196;-68
2022/06/23 01:23:26;;;;;;;9.65;6.72;;;;;;;;;;5063174;28;20219;-68
2022/06/23 01:26:04;;;;;;;10.60;7.00;;;;;;;;;;5057452;28;20396;-68
2022/06/23 01:28:36;;;;;;;11.15;6.30;;;;;;;;;;5065593;28;20204;-68
2022/06/23 01:31:06;;;;;;;10.02;6.43;;;;;;;;;;5065989;28;20197;-68
2022/06/23 01:33:35;;;;;;;8.18;6.22;;;;;;;;;;5066278;28;20432;-68
2022/06/23 01:36:04;;;;;;;12.15;6.32;;;;;;;;;;5066059;28;20428;-68
2022/06/23 01:38:34;;;;;;;15.32;6.82;;;;;;;;;;5065883;28;20197;-68
2022/06/23 01:41:05;;;;;;;14.32;7.10;;;;;;;;;;5066063;28;20200;-68
2022/06/23 01:43:36;;;;;;;10.23;6.30;;;;;;;;;;5065727;28;20220;-68
2022/06/23 01:46:05;;;;;;;10.48;5.88;;;;;;;;;;5065849;28;20406;-68
2022/06/23 01:48:53;;;;;;;12.25;6.75;;;;;;;;;;5065881;28;20197;-68
2022/06/23 01:51:22;;;;;;;10.30;5.78;;;;;;;;;;5065594;28;20205;-68
2022/06/23 01:53:49;;;;;;;11.43;6.25;;;;;;;;;;5065699;28;20205;-68
2022/06/23 01:56:19;;;;;;;12.13;5.72;;;;;;;;;;5065308;28;20205;-68
2022/06/23 01:58:51;;;;;;;10.52;6.30;;;;;;;;;;5065850;28;20196;-68
2022/06/23 02:01:23;;;;;;;7.80;5.70;;;;;;;;;;5065620;28;20259;-68
2022/06/23 02:03:54;;;;;;;18.92;7.07;;;;;;;;;;5065524;28;20221;-68
2022/06/23 02:06:22;;;;;;;11.68;6.10;;;;;;;;;;5064931;28;20232;-68
2022/06/23 02:08:51;;;;;;;13.07;6.18;;;;;;;;;;5065558;28;20197;-68
2022/06/23 02:11:21;;;;;;;13.10;5.53;;;;;;;;;;5065454;28;20268;-68
2022/06/23 02:13:52;;;;;;;13.82;5.32;;;;;;;;;;5065323;28;20193;-68
2022/06/23 02:16:21;;;;;;;14.35;5.78;;;;;;;;;;5065130;28;20201;-68
2022/06/23 02:18:52;;;;;;;11.95;5.13;;;;;;;;;;5065186;28;20197;-68
2022/06/23 02:21:21;;;;;;;10.07;5.35;;;;;;;;;;5065332;28;20218;-68
2022/06/23 02:23:49;;;;;;;13.90;6.00;;;;;;;;;;5065232;28;20528;-68
2022/06/23 02:26:19;;;;;;;11.55;5.32;;;;;;;;;;5064988;28;20197;-68
2022/06/23 02:28:47;;;;;;;12.88;5.47;;;;;;;;;;5065076;28;20206;-68
2022/06/23 02:31:20;;;;;;;10.07;5.47;;;;;;;;;;5065040;28;20424;-68
2022/06/23 02:33:50;;;;;;;12.95;5.25;;;;;;;;;;5064923;28;20201;-68
2022/06/23 02:36:22;;;;;;;10.70;5.22;;;;;;;;;;5063567;28;20236;-68
2022/06/23 02:38:51;;;;;;;8.75;5.43;;;;;;;;;;5064866;28;20247;-68
2022/06/23 02:41:19;;;;;;;13.27;6.00;;;;;;;;;;5064884;28;20250;-68
2022/06/23 02:43:47;;;;;;;12.32;5.80;;;;;;;;;;5064659;28;20259;-68
2022/06/23 02:46:25;;;;;;;8.13;5.38;;;;;;;;;;5064511;28;20207;-68
2022/06/23 02:48:58;;;;;;;13.98;5.95;;;;;;;;;;5064865;28;20201;-68
2022/06/23 02:51:32;;;;;;;8.05;5.30;;;;;;;;;;5064852;28;20540;-68
2022/06/23 02:54:22;;;;;;;13.30;6.13;;;;;;;;;;5064592;28;20200;-68
2022/06/23 02:57:01;;;;;;;13.07;5.57;;;;;;;;;;5053922;28;20243;-68
2022/06/23 02:59:30;;;;;;;14.05;5.38;;;;;;;;;;5064517;28;20212;-68
2022/06/23 03:02:00;;;;;;;13.00;5.60;;;;;;;;;;5064420;28;20292;-68
2022/06/23 03:04:29;;;;;;;12.48;5.28;;;;;;;;;;5064296;28;20221;-68
2022/06/23 03:06:59;;;;;;;9.45;5.28;;;;;;;;;;5063937;28;20220;-68
2022/06/23 03:09:29;;;;;;;10.43;5.57;;;;;;;;;;5064522;28;20516;-68
2022/06/23 03:11:59;;;;;;;12.70;6.03;;;;;;;;;;5064320;28;20197;-68
2022/06/23 03:14:32;;;;;;;11.38;6.75;;;;;;;;;;5064025;28;20200;-68
2022/06/23 03:17:03;;;;;;;10.90;5.80;;;;;;;;;;5063859;28;20524;-68
2022/06/23 03:19:32;;;;;;;10.60;6.40;;;;;;;;;;5064061;28;20197;-68
2022/06/23 03:22:02;;;;;;;11.27;6.47;;;;;;;;;;5064186;28;20512;-68
2022/06/23 03:24:30;;;;;;;11.10;6.53;;;;;;;;;;5064176;28;20228;-68
2022/06/23 03:27:00;;;;;;;13.18;7.32;;;;;;;;;;5063669;28;20212;-68
2022/06/23 03:29:30;;;;;;;14.90;9.20;;;;;;;;;;5063935;28;20213;-68
2022/06/23 03:32:02;;;;;;;17.75;8.90;;;;;;;;;;5063755;28;20193;-68
2022/06/23 03:34:33;;;;;;;18.58;9.60;;;;;;;;;;5064049;28;20215;-68
2022/06/23 03:37:01;;;;;;;27.02;10.98;;;;;;;;;;5063671;28;20202;-68
2022/06/23 03:42:31;;;;;;;16.95;9.68;;;;;;;;;;5063557;28;20239;-68
2022/06/23 03:45:00;;;;;;;18.38;10.70;;;;;;;;;;5063453;28;20228;-68
2022/06/23 03:47:30;;;;;;;22.60;11.45;;;;;;;;;;5063276;28;20201;-68
2022/06/23 03:49:59;;;;;;;19.95;10.90;;;;;;;;;;5063585;28;20196;-68
2022/06/23 03:52:31;;;;;;;18.33;11.65;;;;;;;;;;5063433;28;20438;-68
2022/06/23 03:54:59;;;;;;;19.48;11.48;;;;;;;;;;5063412;28;20204;-68
2022/06/23 03:57:27;;;;;;;24.90;11.73;;;;;;;;;;5063283;28;20197;-68
2022/06/23 04:00:01;;;;;;;22.77;13.65;;;;;;;;;;5063437;28;20197;-68
2022/06/23 04:02:29;;;;;;;32.10;15.30;;;;;;;;;;5063229;28;20205;-68
2022/06/23 04:05:01;;;;;;;25.55;13.48;;;;;;;;;;5063011;28;20304;-68
2022/06/23 04:07:33;;;;;;;23.00;13.48;;;;;;;;;;5062865;28;20209;-68
2022/06/23 04:10:00;;;;;;;15.02;13.02;;;;;;;;;;5062815;28;20209;-66
2022/06/23 04:12:27;;;;;;;20.92;12.02;;;;;;;;;;5063134;28;20208;-67
2022/06/23 04:14:56;;;;;;;16.60;11.23;;;;;;;;;;5063254;28;20200;-68
2022/06/23 04:17:25;;;;;;;17.15;10.43;;;;;;;;;;5062718;28;20393;-68
2022/06/23 04:19:54;;;;;;;19.00;10.80;;;;;;;;;;5062597;28;20203;-68
2022/06/23 04:22:24;;;;;;;20.20;12.57;;;;;;;;;;5063005;28;20197;-68
2022/06/23 04:24:52;;;;;;;15.73;10.90;;;;;;;;;;5062945;28;20223;-68
2022/06/23 04:27:21;;;;;;;21.30;11.65;;;;;;;;;;5062684;28;20203;-68
2022/06/23 04:29:50;;;;;;;18.80;10.45;;;;;;;;;;5062698;28;20204;-68
2022/06/23 04:32:17;;;;;;;17.33;10.60;;;;;;;;;;5062573;28;20204;-68
2022/06/23 04:34:48;;;;;;;14.35;9.95;;;;;;;;;;5062678;28;20205;-68
2022/06/23 04:37:16;;;;;;;16.67;10.90;;;;;;;;;;5062575;28;20197;-68
2022/06/23 04:39:46;;;;;;;16.92;11.30;;;;;;;;;;5062648;28;20228;-68
2022/06/23 04:42:16;;;;;;;15.23;10.48;;;;;;;;;;5062637;28;20200;-68
2022/06/23 04:44:45;;;;;;;37.85;24.45;;;;;;;;;;5062482;28;20548;-68
2022/06/23 04:47:13;;;;;;;17.60;10.70;;;;;;;;;;5062322;28;20220;-68
2022/06/23 04:49:41;;;;;;;9.68;7.35;;;;;;;;;;5062479;28;20201;-68
2022/06/23 04:52:14;;;;;;;9.45;7.43;;;;;;;;;;5062562;28;20204;-68
2022/06/23 04:54:44;;;;;;;8.77;6.50;;;;;;;;;;5062442;28;20492;-68
2022/06/23 04:57:13;;;;;;;11.75;6.82;;;;;;;;;;5061962;28;20206;-68
2022/06/23 04:59:41;;;;;;;7.45;6.72;;;;;;;;;;5061900;28;20203;-68
2022/06/23 05:02:16;;;;;;;10.32;6.85;;;;;;;;;;5062292;28;20204;-68
2022/06/23 05:04:44;;;;;;;12.82;7.88;;;;;;;;;;5062366;28;20212;-68
2022/06/23 05:07:19;;;;;;;15.65;7.70;;;;;;;;;;5061985;28;20403;-69
2022/06/23 05:09:45;;;;;;;10.65;7.10;;;;;;;;;;5062179;28;20219;-68
2022/06/23 05:12:18;;;;;;;11.18;7.40;;;;;;;;;;5062344;28;20504;-68
2022/06/23 05:14:47;;;;;;;8.23;6.85;;;;;;;;;;5062692;28;20193;-70
2022/06/23 05:17:16;;;;;;;8.77;6.18;;;;;;;;;;5061972;28;20365;-69
2022/06/23 05:19:43;;;;;;;9.35;5.82;;;;;;;;;;5062189;28;20519;-69
2022/06/23 05:22:19;;;;;;;9.25;5.57;;;;;;;;;;5061964;28;20311;-69
2022/06/23 05:24:46;;;;;;;10.20;6.97;;;;;;;;;;5053792;28;20216;-60
2022/06/23 05:27:19;;;;;;;11.90;7.28;;;;;;;;;;5051090;28;20254;-60
2022/06/23 05:29:49;;;;;;;9.93;7.13;;;;;;;;;;5055810;28;20213;-61
2022/06/23 05:32:18;;;;;;;9.18;8.20;;;;;;;;;;5055104;28;20429;-62
2022/06/23 05:34:47;;;;;;;9.90;7.65;;;;;;;;;;5054627;28;20670;-62
2022/06/23 05:37:17;;;;;;;9.43;7.47;;;;;;;;;;5045880;28;20220;-62
2022/06/23 05:39:46;;;;;;;14.30;7.68;;;;;;;;;;5052909;28;20213;-61
2022/06/23 05:42:17;;;;;;;11.00;7.78;;;;;;;;;;5034543;28;20228;-63
2022/06/23 05:44:48;;;;;;;9.88;6.80;;;;;;;;;;5043509;28;20259;-62
2022/06/23 05:47:14;;;;;;;11.43;7.38;;;;;;;;;;5034178;28;20219;-60
2022/06/23 05:49:43;;;;;;;7.97;6.53;;;;;;;;;;5044287;28;20213;-61
2022/06/23 05:52:12;;;;;;;13.25;7.78;;;;;;;;;;5054822;28;20237;-61
2022/06/23 05:54:42;;;;;;;9.90;7.38;;;;;;;;;;5041849;28;20209;-62
2022/06/23 05:57:11;;;;;;;9.10;6.25;;;;;;;;;;5035272;28;20213;-60
2022/06/23 05:59:48;;;;;;;9.23;6.63;;;;;;;;;;5054784;28;20213;-61
2022/06/23 06:02:18;;;;;;;13.63;7.70;;;;;;;;;;5043955;28;20236;-60
2022/06/23 06:04:46;;;;;;;12.02;7.10;;;;;;;;;;5050527;28;20217;-61
2022/06/23 06:07:14;;;;;;;13.05;7.28;;;;;;;;;;5037197;28;20226;-62
2022/06/23 06:09:41;;;;;;;15.77;7.90;;;;;;;;;;5044494;28;20267;-62
2022/06/23 06:12:08;;;;;;;14.45;7.07;;;;;;;;;;5057239;28;20270;-62
2022/06/23 06:14:39;;;;;;;15.07;7.10;;;;;;;;;;5041340;28;20252;-62
2022/06/23 06:17:07;;;;;;;9.20;5.75;;;;;;;;;;5054795;28;20213;-61
2022/06/23 06:19:34;;;;;;;17.17;7.35;;;;;;;;;;5045485;28;20213;-62
2022/06/23 06:22:02;;;;;;;10.70;6.40;;;;;;;;;;5054209;28;20567;-61
2022/06/23 06:24:30;;;;;;;15.85;6.50;;;;;;;;;;5057207;28;20220;-63
2022/06/23 06:26:57;;;;;;;15.32;5.88;;;;;;;;;;5048728;28;20216;-62
2022/06/23 06:29:24;;;;;;;7.97;5.68;;;;;;;;;;5057157;28;20471;-62
2022/06/23 06:31:52;;;;;;;9.77;6.40;;;;;;;;;;5052926;28;20220;-62
2022/06/23 06:34:21;;;;;;;13.05;5.03;;;;;;;;;;5057394;28;20652;-60
2022/06/23 06:36:49;;;;;;;13.25;6.15;;;;;;;;;;5055436;28;20217;-62
2022/06/23 06:39:18;;;;;;;8.98;5.05;;;;;;;;;;5042923;28;20217;-62
2022/06/23 06:41:47;;;;;;;11.77;5.38;;;;;;;;;;5049885;28;20224;-62
2022/06/23 06:44:13;;;;;;;12.43;4.78;;;;;;;;;;5056455;28;20219;-62
2022/06/23 06:46:40;;;;;;;9.00;4.88;;;;;;;;;;5056312;28;20488;-61
2022/06/23 06:49:10;;;;;;;10.35;4.75;;;;;;;;;;5056897;28;20217;-62
2022/06/23 06:51:39;;;;;;;10.10;4.18;;;;;;;;;;5043416;28;20217;-62
2022/06/23 06:54:08;;;;;;;10.20;4.50;;;;;;;;;;5048634;28;20236;-62
2022/06/23 06:56:36;;;;;;;5.07;3.65;;;;;;;;;;5044406;28;20209;-62
2022/06/23 06:59:04;;;;;;;7.65;4.18;;;;;;;;;;5056992;28;20389;-62
2022/06/23 07:01:33;;;;;;;6.82;4.00;;;;;;;;;;5044934;28;20217;-62
2022/06/23 07:03:59;;;;;;;6.88;4.18;;;;;;;;;;5040757;28;20213;-62
2022/06/23 07:06:29;;;;;;;9.43;4.70;;;;;;;;;;5035263;28;20245;-62
2022/06/23 07:08:59;;;;;;;8.25;4.32;;;;;;;;;;5036182;28;20247;-62
2022/06/23 07:11:29;;;;;;;13.60;5.45;;;;;;;;;;5043830;28;20316;-62
2022/06/23 07:13:58;;;;;;;9.55;3.70;;;;;;;;;;5036141;28;20428;-62
2022/06/23 07:16:29;;;;;;;10.35;3.85;;;;;;;;;;5053412;28;20213;-62
2022/06/23 07:18:59;;;;;;;6.32;3.75;;;;;;;;;;5044566;28;20214;-62
2022/06/23 07:21:28;;;;;;;6.38;4.15;;;;;;;;;;5038286;28;20213;-62
2022/06/23 07:23:56;;;;;;;9.95;4.75;;;;;;;;;;5051464;28;20502;-63
2022/06/23 07:26:29;;;;;;;9.90;5.47;;;;;;;;;;5046994;28;20236;-62
2022/06/23 07:28:58;;;;;;;12.68;7.40;;;;;;;;;;5043616;28;20209;-62
2022/06/23 07:31:26;;;;;;;9.88;3.90;;;;;;;;;;5055974;28;20250;-60
2022/06/23 07:33:55;;;;;;;13.48;4.38;;;;;;;;;;5047435;28;20221;-60
2022/06/23 07:36:26;;;;;;;12.35;4.47;;;;;;;;;;5040576;28;20209;-60
2022/06/23 07:38:54;;;;;;;7.85;3.60;;;;;;;;;;5035894;28;20544;-59
2022/06/23 07:41:23;;;;;;;11.02;4.10;;;;;;;;;;5038257;28;20209;-60
2022/06/23 07:43:55;;;;;;;13.02;3.95;;;;;;;;;;5035535;28;20529;-61
2022/06/23 07:46:21;;;;;;;11.35;4.07;;;;;;;;;;5035229;28;20574;-61
2022/06/23 07:48:47;;;;;;;12.88;4.35;;;;;;;;;;5035317;28;20413;-60
2022/06/23 07:51:14;;;;;;;7.88;4.07;;;;;;;;;;5046125;28;20216;-60
2022/06/23 07:53:41;;;;;;;13.10;5.43;;;;;;;;;;5046333;28;20217;-62
2022/06/23 07:56:09;;;;;;;8.57;4.13;;;;;;;;;;5034834;28;20218;-61
2022/06/23 07:58:39;;;;;;;12.02;4.47;;;;;;;;;;5034813;28;20213;-61
2022/06/23 08:01:09;;;;;;;13.60;4.05;;;;;;;;;;5035880;28;20225;-62
2022/06/23 08:03:37;;;;;;;8.95;4.05;;;;;;;;;;5054849;28;20219;-62
2022/06/23 08:06:06;;;;;;;9.93;3.75;;;;;;;;;;5055074;28;20279;-61
2022/06/23 08:08:34;;;;;;;10.23;3.65;;;;;;;;;;5055505;28;20583;-62
2022/06/23 08:13:48;;;;;;;9.85;3.88;;;;;;;;;;5047512;28;20530;-62
2022/06/23 08:19:18;;;;;;;11.50;4.20;;;;;;;;;;5001725;28;20228;-61
2022/06/23 08:21:46;;;;;;;15.98;4.75;;;;;;;;;;4993432;28;20294;-62
2022/06/23 08:24:14;;;;;;;13.13;4.38;;;;;;;;;;5028871;28;20212;-63
2022/06/23 08:26:42;;;;;;;9.57;4.32;;;;;;;;;;5054438;28;20303;-63
2022/06/23 08:29:11;;;;;;;12.10;4.32;;;;;;;;;;5041413;28;20209;-63
2022/06/23 08:31:39;;;;;;;14.15;4.25;;;;;;;;;;5039372;28;20280;-62
2022/06/23 08:34:05;;;;;;;11.63;4.25;;;;;;;;;;5054193;28;20440;-62
2022/06/23 08:36:36;;;;;;;13.30;3.33;;;;;;;;;;5054899;28;20213;-61
2022/06/23 08:39:06;;;;;;;13.20;3.60;;;;;;;;;;5055670;28;20215;-62
2022/06/23 08:41:37;;;;;;;8.43;3.95;;;;;;;;;;5055492;28;20216;-61
2022/06/23 08:44:07;;;;;;;9.57;3.72;;;;;;;;;;5047139;28;20221;-62
2022/06/23 08:46:36;;;;;;;12.80;4.15;;;;;;;;;;5050501;28;20225;-62
2022/06/23 08:49:06;;;;;;;10.32;4.07;;;;;;;;;;5043835;28;20217;-62
2022/06/23 08:51:37;;;;;;;10.48;3.22;;;;;;;;;;5051271;28;20216;-63
2022/06/23 08:54:08;;;;;;;9.90;3.70;;;;;;;;;;5047070;28;20213;-62
2022/06/23 08:56:43;;;;;;;12.77;3.78;;;;;;;;;;5050531;28;20208;-62
2022/06/23 08:59:13;;;;;;;10.63;4.03;;;;;;;;;;5053626;28;20439;-62
2022/06/23 09:01:43;;;;;;;8.98;3.70;;;;;;;;;;5053211;28;20434;-62
2022/06/23 09:04:14;;;;;;;10.43;3.53;;;;;;;;;;5053018;28;20251;-61
2022/06/23 09:06:42;;;;;;;15.68;3.65;;;;;;;;;;5050980;28;20672;-62
2022/06/23 09:09:16;;;;;;;9.90;3.50;;;;;;;;;;5049085;28;20205;-62
2022/06/23 09:11:44;;;;;;;12.30;3.30;;;;;;;;;;5034310;28;20529;-62
2022/06/23 09:14:20;;;;;;;11.23;3.55;;;;;;;;;;5041886;28;20407;-62
2022/06/23 09:16:52;;;;;;;12.43;3.67;;;;;;;;;;5049318;28;20247;-63
2022/06/23 09:19:25;;;;;;;13.23;3.28;;;;;;;;;;5044098;28;20216;-63
2022/06/23 09:22:03;;;;;;;6.45;2.78;;;;;;;;;;5033816;28;20216;-62
2022/06/23 09:24:41;;;;;;;10.82;3.72;;;;;;;;;;5038257;28;20220;-62
2022/06/23 09:27:13;;;;;;;11.90;3.05;;;;;;;;;;5050758;28;20456;-63
2022/06/23 09:29:46;;;;;;;11.85;3.50;;;;;;;;;;5036809;28;20237;-62
2022/06/23 09:32:18;;;;;;;8.07;3.08;;;;;;;;;;5043061;28;20543;-62
2022/06/23 09:34:55;;;;;;;9.07;3.20;;;;;;;;;;5048401;28;20200;-62
2022/06/23 09:37:39;;;;;;;9.68;2.58;;;;;;;;;;5034302;28;20215;-62
2022/06/23 09:40:13;;;;;;;11.52;2.92;;;;;;;;;;5042571;28;20220;-61
2022/06/23 09:42:51;;;;;;;5.28;2.83;;;;;;;;;;5033402;28;20544;-60
2022/06/23 09:45:24;;;;;;;9.20;2.92;;;;;;;;;;5036238;28;20571;-61
2022/06/23 09:48:00;;;;;;;8.25;3.25;;;;;;;;;;5048887;28;20452;-63
2022/06/23 09:50:41;;;;;;;5.32;2.70;;;;;;;;;;5054022;28;20219;-64
2022/06/23 09:53:23;;;;;;;8.73;2.85;;;;;;;;;;5051695;28;20724;-63
2022/06/23 09:56:01;;;;;;;8.48;2.78;;;;;;;;;;5043397;28;20231;-62
2022/06/23 09:58:33;;;;;;;10.93;2.60;;;;;;;;;;5037911;28;20216;-62
2022/06/23 10:01:08;;;;;;;10.18;2.80;;;;;;;;;;5042238;28;20465;-62
2022/06/23 10:03:40;;;;;;;9.27;3.05;;;;;;;;;;5052660;28;20246;-62
2022/06/23 10:06:12;;;;;;;11.25;2.78;;;;;;;;;;5054400;28;20259;-62
2022/06/23 10:08:45;;;;;;;11.85;2.92;;;;;;;;;;5057589;28;20219;-62
2022/06/23 10:11:19;;;;;;;8.75;3.00;;;;;;;;;;5057498;28;20425;-61
2022/06/23 10:13:51;;;;;;;14.60;2.92;;;;;;;;;;5057254;28;20220;-63
2022/06/23 10:16:27;;;;;;;6.97;2.85;;;;;;;;;;5050203;28;20256;-63
2022/06/23 10:19:02;;;;;;;9.55;3.20;;;;;;;;;;5038169;28;20219;-62
2022/06/23 10:21:33;;;;;;;7.10;2.72;;;;;;;;;;5057801;28;20223;-62
2022/06/23 10:24:17;;;;;;;11.25;2.97;;;;;;;;;;5054111;28;20220;-63
2022/06/23 10:26:56;;;;;;;9.77;2.80;;;;;;;;;;5046690;28;20427;-61
2022/06/23 10:29:46;;;;;;;9.77;3.05;;;;;;;;;;5057519;28;20213;-61
2022/06/23 10:32:23;;;;;;;14.20;3.22;;;;;;;;;;5042678;28;20220;-61
2022/06/23 10:34:56;;;;;;;7.97;2.72;;;;;;;;;;5056576;28;20220;-61
2022/06/23 10:37:28;;;;;;;10.43;2.63;;;;;;;;;;5054460;28;20680;-61
2022/06/23 10:40:04;;;;;;;8.70;2.15;;;;;;;;;;5037194;28;20213;-61
2022/06/23 10:42:39;;;;;;;8.20;2.25;;;;;;;;;;5041244;28;20201;-61
2022/06/23 10:45:21;;;;;;;5.82;2.10;;;;;;;;;;5044767;28;20550;-61
2022/06/23 10:47:56;;;;;;;12.02;2.50;;;;;;;;;;5053558;28;20907;-61
2022/06/23 10:50:30;;;;;;;7.93;2.45;;;;;;;;;;5056904;28;20212;-61
2022/06/23 10:53:14;;;;;;;12.27;2.35;;;;;;;;;;5049662;28;20217;-61
2022/06/23 10:55:47;;;;;;;10.88;2.63;;;;;;;;;;5051220;28;20220;-62
2022/06/23 10:58:21;;;;;;;8.23;2.50;;;;;;;;;;5050377;28;20212;-62
2022/06/23 11:00:53;;;;;;;6.43;2.00;;;;;;;;;;5056838;28;20219;-62
2022/06/23 11:03:29;;;;;;;9.98;2.53;;;;;;;;;;5041887;28;20213;-61
2022/06/23 11:06:11;;;;;;;8.70;2.42;;;;;;;;;;5036624;28;20652;-61
2022/06/23 11:08:44;;;;;;;13.65;2.50;;;;;;;;;;5045700;28;20259;-61
2022/06/23 11:11:21;;;;;;;10.13;2.65;;;;;;;;;;5056624;28;20212;-61
2022/06/23 11:13:54;;;;;;;12.07;2.97;;;;;;;;;;5056118;28;20239;-61
2022/06/23 11:16:26;;;;;;;8.70;2.63;;;;;;;;;;5048379;28;20223;-61
2022/06/23 11:18:58;;;;;;;7.05;2.45;;;;;;;;;;5036122;28;20205;-60
2022/06/23 11:21:29;;;;;;;16.10;2.80;;;;;;;;;;5055853;28;20216;-62
2022/06/23 11:24:00;;;;;;;12.60;2.78;;;;;;;;;;5045434;28;20455;-63
2022/06/23 11:26:32;;;;;;;6.82;2.50;;;;;;;;;;5035557;28;20240;-63
2022/06/23 11:29:09;;;;;;;12.95;2.97;;;;;;;;;;5036079;28;20197;-62
2022/06/23 11:31:38;;;;;;;10.85;2.50;;;;;;;;;;5052803;28;20446;-63
2022/06/23 11:34:21;;;;;;;4.90;2.30;;;;;;;;;;5055925;28;20219;-63
2022/06/23 11:36:55;;;;;;;8.15;2.50;;;;;;;;;;5045504;28;20212;-63
2022/06/23 11:39:43;;;;;;;11.25;2.55;;;;;;;;;;5050237;28;20216;-63
2022/06/23 11:42:27;;;;;;;7.20;2.38;;;;;;;;;;5021740;28;20213;-62
2022/06/23 11:45:01;;;;;;;7.90;2.92;;;;;;;;;;5047252;28;20213;-62
2022/06/23 11:47:33;;;;;;;10.20;3.17;;;;;;;;;;5048102;28;20491;-62
2022/06/23 11:50:05;;;;;;;8.05;2.72;;;;;;;;;;5043408;28;20219;-62
2022/06/23 11:52:37;;;;;;;8.32;3.25;;;;;;;;;;5052812;28;20216;-62
2022/06/23 11:55:09;;;;;;;11.25;2.72;;;;;;;;;;5035752;28;20213;-63
2022/06/23 11:57:42;;;;;;;11.68;2.50;;;;;;;;;;5038875;28;20208;-62
2022/06/23 12:00:10;;;;;;;6.15;2.35;;;;;;;;;;5054975;28;20562;-62
2022/06/23 12:02:43;;;;;;;12.93;3.35;;;;;;;;;;5056211;28;20217;-62
2022/06/23 12:05:15;;;;;;;8.55;2.67;;;;;;;;;;5053891;28;20236;-62
2022/06/23 12:07:56;;;;;;;14.20;3.10;;;;;;;;;;5048036;28;20278;-62
2022/06/23 12:10:25;;;;;;;9.40;2.60;;;;;;;;;;5051614;28;20213;-62
2022/06/23 12:12:52;;;;;;;10.38;2.90;;;;;;;;;;5055428;28;20279;-62
2022/06/23 12:15:23;;;;;;;8.77;2.38;;;;;;;;;;5049521;28;20216;-70
2022/06/23 12:17:51;;;;;;;11.18;2.50;;;;;;;;;;5039867;28;20205;-72
2022/06/23 12:20:23;;;;;;;11.05;2.72;;;;;;;;;;5049602;28;20216;-72
2022/06/23 12:22:52;;;;;;;8.35;2.45;;;;;;;;;;5045112;28;20513;-71
2022/06/23 12:25:24;;;;;;;12.20;3.08;;;;;;;;;;5047516;28;20283;-72
2022/06/23 12:27:56;;;;;;;10.85;2.80;;;;;;;;;;5039132;28;20295;-73
2022/06/23 12:30:25;;;;;;;9.75;2.83;;;;;;;;;;5042941;28;20217;-71
2022/06/23 12:32:55;;;;;;;9.43;2.30;;;;;;;;;;5034946;28;20520;-71
2022/06/23 12:35:25;;;;;;;12.23;2.45;;;;;;;;;;5034557;28;20205;-72
2022/06/23 12:37:55;;;;;;;10.35;2.70;;;;;;;;;;5051092;28;20212;-72
2022/06/23 12:40:25;;;;;;;14.93;2.75;;;;;;;;;;5042776;28;20212;-72
2022/06/23 12:42:53;;;;;;;11.68;2.63;;;;;;;;;;5038363;28;20248;-72
2022/06/23 12:45:29;;;;;;;15.25;2.95;;;;;;;;;;5038498;28;20398;-72
2022/06/23 12:48:07;;;;;;;9.80;3.05;;;;;;;;;;5041247;28;20249;-72
2022/06/23 12:50:49;;;;;;;10.48;2.22;;;;;;;;;;5046999;28;20213;-72
2022/06/23 12:53:27;;;;;;;8.27;2.70;;;;;;;;;;5050495;28;20212;-72
2022/06/23 12:56:03;;;;;;;10.25;2.80;;;;;;;;;;5044931;28;20212;-71
2022/06/23 12:58:33;;;;;;;14.55;2.83;;;;;;;;;;5046291;28;20205;-72
2022/06/23 13:01:06;;;;;;;10.32;2.83;;;;;;;;;;5037944;28;20217;-71
2022/06/23 13:03:36;;;;;;;16.58;3.03;;;;;;;;;;5036908;28;20212;-70
2022/06/23 13:06:10;;;;;;;6.93;2.42;;;;;;;;;;5038935;28;20248;-71
2022/06/23 13:08:39;;;;;;;11.45;2.28;;;;;;;;;;5050681;28;20228;-72
2022/06/23 13:11:07;;;;;;;9.95;2.13;;;;;;;;;;5049703;28;20411;-71
2022/06/23 13:13:37;;;;;;;11.77;2.75;;;;;;;;;;5050474;28;20204;-71
2022/06/23 13:16:07;;;;;;;13.35;2.60;;;;;;;;;;5054456;28;20212;-71
2022/06/23 13:18:35;;;;;;;11.23;2.53;;;;;;;;;;5033774;28;20240;-71
2022/06/23 13:21:09;;;;;;;8.13;2.53;;;;;;;;;;5038768;28;20293;-72
2022/06/23 13:23:36;;;;;;;10.45;2.20;;;;;;;;;;5050744;28;20212;-71
2022/06/23 13:26:05;;;;;;;8.82;2.80;;;;;;;;;;5050643;28;20212;-70
2022/06/23 13:28:32;;;;;;;10.57;2.70;;;;;;;;;;5050550;28;20470;-71
2022/06/23 13:31:05;;;;;;;11.20;2.92;;;;;;;;;;5041999;28;20435;-71
2022/06/23 13:33:36;;;;;;;10.40;3.03;;;;;;;;;;5044845;28;20219;-70
2022/06/23 13:36:05;;;;;;;8.65;2.55;;;;;;;;;;5054253;28;20204;-70
2022/06/23 13:38:40;;;;;;;16.77;3.22;;;;;;;;;;5042752;28;20213;-71
2022/06/23 13:41:10;;;;;;;8.15;2.80;;;;;;;;;;5050592;28;20212;-70
2022/06/23 13:43:37;;;;;;;10.20;3.70;;;;;;;;;;5048671;28;20213;-71
2022/06/23 13:46:08;;;;;;;13.95;3.38;;;;;;;;;;5033788;28;20217;-71
2022/06/23 13:48:42;;;;;;;12.70;3.35;;;;;;;;;;5046008;28;20240;-71
2022/06/23 13:51:12;;;;;;;8.88;2.83;;;;;;;;;;5050671;28;20467;-70
2022/06/23 13:53:42;;;;;;;11.55;3.60;;;;;;;;;;5053192;28;20212;-71
2022/06/23 13:56:13;;;;;;;9.02;3.28;;;;;;;;;;5052729;28;20536;-72
2022/06/23 13:58:42;;;;;;;9.13;3.53;;;;;;;;;;5053448;28;20216;-72
2022/06/23 14:01:11;;;;;;;9.57;3.13;;;;;;;;;;5049746;28;20212;-71
2022/06/23 14:03:45;;;;;;;9.75;3.10;;;;;;;;;;5052627;28;20228;-70
2022/06/23 14:06:14;;;;;;;6.82;3.00;;;;;;;;;;5048516;28;20511;-70
2022/06/23 14:08:44;;;;;;;12.65;3.90;;;;;;;;;;5038340;28;20221;-70
2022/06/23 14:11:16;;;;;;;15.85;3.83;;;;;;;;;;5034683;28;20208;-70
2022/06/23 14:13:45;;;;;;;13.55;3.42;;;;;;;;;;5033929;28;20212;-70
2022/06/23 14:16:15;;;;;;;9.98;3.83;;;;;;;;;;5040409;28;20212;-71
2022/06/23 14:18:47;;;;;;;11.68;3.45;;;;;;;;;;5047365;28;20216;-72
2022/06/23 14:21:25;;;;;;;7.50;3.03;;;;;;;;;;5037227;28;20213;-72
2022/06/23 14:23:59;;;;;;;9.00;3.53;;;;;;;;;;5035541;28;20217;-72
2022/06/23 14:26:29;;;;;;;10.00;3.28;;;;;;;;;;5037115;28;20213;-72
2022/06/23 14:29:01;;;;;;;8.30;3.13;;;;;;;;;;5053275;28;20577;-69
2022/06/23 14:31:31;;;;;;;6.95;3.13;;;;;;;;;;5052465;28;20242;-71
2022/06/23 14:36:51;;;;;;;11.23;3.28;;;;;;;;;;5042586;28;20584;-72
2022/06/23 14:39:20;;;;;;;9.43;3.55;;;;;;;;;;5047467;28;20444;-73
2022/06/23 14:41:58;;;;;;;16.05;3.42;;;;;;;;;;5047074;28;20255;-73
2022/06/23 14:44:31;;;;;;;11.52;3.30;;;;;;;;;;5048994;28;20539;-70
2022/06/23 14:47:02;;;;;;;7.57;3.28;;;;;;;;;;5044697;28;20220;-72
2022/06/23 14:49:44;;;;;;;9.32;3.53;;;;;;;;;;5041148;28;20201;-72
2022/06/23 14:52:12;;;;;;;10.98;3.90;;;;;;;;;;5050580;28;20476;-72
2022/06/23 14:54:43;;;;;;;12.30;3.92;;;;;;;;;;5051857;28;21603;-71
2022/06/23 14:57:19;;;;;;;11.38;3.20;;;;;;;;;;5035944;28;20220;-70
2022/06/23 14:59:48;;;;;;;9.05;3.72;;;;;;;;;;5037566;28;20276;-70
2022/06/23 15:02:20;;;;;;;11.95;3.38;;;;;;;;;;5045878;28;20512;-70
2022/06/23 15:04:50;;;;;;;10.63;3.05;;;;;;;;;;5048873;28;20220;-69
2022/06/23 15:07:20;;;;;;;10.77;2.72;;;;;;;;;;5056335;28;20243;-71